Innsbruck, Austria

5:16 AM CET on March 02, 2015 (GMT +0100)
Innsbruck | Change Station
CLOSE
Current Station
Airport
Location: Innsbruck,
Elevation: 1906 ft
Nearby Weather Stations
Active Advisory: Wind english:

Elev 1906 ft 47.26 °N, 11.34 °E | Updated 26 minutes ago

Light Rain
Light Rain
39 °F
Feels Like 33 °F
N
9
Wind Variable Wind from WSW

Today
High -- | Low -- °F
--% Chance of Precip.
Yesterday
High -- | Low -- °F
Precip. -- in
6:53 AM 6:00 PM
Waxing Gibbous, 89% visible
Pressure 29.77 in
Visibility 6.2 miles
Clouds Few 2500 ft
Mostly Cloudy 4000 ft
Windchill 33 °F
Dew Point 37 °F
Humidity 93%
Rainfall 0.00 in
Snow Depth Not available.
UV 0 out of 12
Pollen Not available.
Air Quality Not available.
Flu Activity Not available.
METAR LOWI 020350Z 25008KT 9999 -RA FEW025 BKN040 04/03 Q1008 NOSIG

More Conditions Fewer Conditions

Pressure 29.77 in
Visibility 6.2 miles
Clouds Few 2500 ft
Mostly Cloudy 4000 ft
Windchill 33 °F
Dew Point 37 °F
Humidity 93%
Rainfall 0.00 in
Snow Depth Not available.
UV 0 out of 12
Pollen Not available.
Air Quality Not available.
Flu Activity Not available.
METAR LOWI 020350Z 25008KT 9999 -RA FEW025 BKN040 04/03 Q1008 NOSIG

More Conditions Fewer Conditions

10-Day Weather Forecast

Almanac

Astronomy

Mar. 02, 2015 Rise Set
Actual Time
Civil Twilight
Nautical Twilight
Astronomical Twilight
Moon
Length of Visible Light
Length of Day
Tomorrow will be .
, % of the Moon is Illuminated

Today's Extremes

Country Highs Country Lows

Community

WunderPhotos

Upload Photos

1,801,722 photos uploaded!

WunderBlogs® & News

Nearby

Air Quality

  Air Quality AQ Index Pollutant
Not available.

Snow Depth

Station Depth Elevation

Earthquake Activity

City Distance Mag. Time & Date
Minimum magnitude displayed is 2.5.

Coastal Water Temperatures

Place Temperature

Nearby Weather Stations